Moatsville, West Virginia
Current Conditions -  °F | °C
As of 6:53 PM on Thursday 27 Nov 2014 (Local Time) from KCKB Reporting Station
Light Snow Light Snow  
Wind Chill: 20°   Ceiling: 2200
Heat Index: 30°   Visibility: 8mi
Dew Point: 26°   Wind: 13mph
Humidity: 85%   Direction: 290°WNW
Pressure: 30.21"   Gusts: NA
Location:  39.21°N, 79.93°W
Report Text: KCKB 272353Z 29011KT 8SM -SN SCT013 BKN022 OVC036 M01/M03 A3021 RMK AO2 SLP238 P0001 60004 T10111033 10017 21011 53024
Loading
Personal Weather Stations






























Interactive Weather Map New forecast layout! Learn more

10-Day Weather Forecast

Advertisements
Track Severe Weather on mobile